Aurelia, North Dakota
Current Conditions -  °F | °C
As of 7:55 AM on Thursday 23 Oct 2014 (Local Time) from K08D Reporting Station
NA  
Wind Chill:   Ceiling: NA
Heat Index:   Visibility: 10mi
Dew Point:   Wind: 5mph
Humidity: 81%   Direction: 270°W
Pressure: 29.85"   Gusts: NA
Location:  48.4598°N, 101.907°W
Report Text: K08D 231255Z AUTO 27004KT 10SM 03/00 A2985 RMK AO2
Loading
Personal Weather Stations






























Interactive Weather Map
Tropical Storm Tracking
New forecast layout! Learn more

10-Day Weather Forecast

Advertisements
Track Severe Weather on mobile